Rechercher aéroport 
image banner adimage banner ad
image banner ad

SVBQ - Boquemonte

Situé à Portuguesa, Venezuela

ICAO - SVBQ, IATA -

Données fournies par Airmate  

Information générale

Coordonnées: N9°12'0" W69°45'0"
Élévation : 1001 feet MSL.
 
Voir autres Aéroports à Zulia

Données opérationnelles

Accessible au public
Heure actuelle UTC:
Heure actuelle locale:
Météo à : SVGU - Guanare Ntl ( 19 km )
METAR: SVGU 301602Z AUTO 13003KT NCD 37/20 Q1015
Voir NOTAMs / SUP AIP / TFR affectant cet aéroport [VIEW]
Fréquences de communication: [VIEW]

Pistes:

Identifiant RWYQFULongueur (ft)Largeur (ft)SurfaceLDA (ft)
18180°471598ASP
36262549

Coordonnées de l'aéroport

Adresse: Portuguesa Venezuela

Vue satellite de SVBQ